Time;durP1;ratioP1;P1;durP2;ratioP2;P2;SDS_P1;SDS_P2;PMS_P1;PMS_P2;Temp;Humidity;BMP_temperature;BMP_pressure;BME280_temperature;BME280_humidity;BME280_pressure;Samples;Min_cycle;Max_cycle;Signal;HPM_P1;HPM_P2
2023/09/17 00:01:11;;;;;;;;;;;19.10;99.90;;;;;;5042647;28;20023;-83
2023/09/17 00:03:38;;;;;;;;;;;19.20;99.90;;;;;;5037328;28;20556;-83
2023/09/17 00:06:06;;;;;;;;;;;19.10;99.90;;;;;;5041794;28;19925;-84
2023/09/17 00:08:32;;;;;;;;;;;19.10;99.90;;;;;;5039968;28;19926;-84
2023/09/17 00:10:59;;;;;;;;;;;19.10;99.90;;;;;;5040335;28;19929;-84
2023/09/17 00:13:26;;;;;;;;;;;19.10;99.90;;;;;;5042416;28;19925;-84
2023/09/17 00:15:53;;;;;;;;;;;19.10;99.90;;;;;;5041919;28;19925;-83
2023/09/17 00:18:19;;;;;;;;;;;19.00;99.90;;;;;;5042409;28;20385;-84
2023/09/17 00:20:46;;;;;;;;;;;19.10;99.90;;;;;;5039655;28;19976;-83
2023/09/17 00:23:14;;;;;;;;;;;19.00;99.90;;;;;;5039616;28;19944;-84
2023/09/17 00:25:41;;;;;;;;;;;19.00;99.90;;;;;;5038309;28;19925;-83
2023/09/17 00:28:07;;;;;;;;;;;19.00;99.90;;;;;;5038739;28;19925;-85
2023/09/17 00:30:34;;;;;;;;;;;19.00;99.90;;;;;;5040976;28;19948;-84
2023/09/17 00:33:01;;;;;;;;;;;19.10;99.90;;;;;;5042357;28;19979;-84
2023/09/17 00:35:27;;;;;;;;;;;19.10;99.90;;;;;;5042158;28;19932;-85
2023/09/17 00:37:54;;;;;;;;;;;19.10;99.90;;;;;;5040244;28;19925;-84
2023/09/17 00:40:23;;;;;;;;;;;19.10;99.90;;;;;;5039869;28;19956;-83
2023/09/17 00:42:50;;;;;;;;;;;19.10;99.90;;;;;;5040497;28;19975;-83
2023/09/17 00:45:16;;;;;;;;;;;19.10;99.90;;;;;;5041052;28;19929;-83
2023/09/17 00:47:43;;;;;;;;;;;19.10;99.90;;;;;;5039596;28;19972;-85
2023/09/17 00:50:10;;;;;;;;;;;19.10;99.90;;;;;;5041045;28;19964;-84
2023/09/17 00:52:38;;;;;;;;;;;19.10;99.90;;;;;;5040070;28;20011;-83
2023/09/17 00:55:06;;;;;;;;;;;19.10;99.90;;;;;;5041626;28;20430;-84
2023/09/17 00:57:33;;;;;;;;;;;19.10;99.90;;;;;;5039448;28;20420;-84
2023/09/17 01:00:00;;;;;;;;;;;19.10;99.90;;;;;;5038759;28;19960;-83
2023/09/17 01:02:27;;;;;;;;;;;19.10;99.90;;;;;;5037264;28;19925;-82
2023/09/17 01:04:54;;;;;;;;;;;19.10;99.90;;;;;;5039241;28;19925;-83
2023/09/17 01:07:21;;;;;;;;;;;19.00;99.90;;;;;;5040101;28;19932;-83
2023/09/17 01:09:49;;;;;;;;;;;19.00;99.90;;;;;;5040157;28;19932;-83
2023/09/17 01:12:16;;;;;;;;;;;19.00;99.90;;;;;;5039961;28;19956;-84
2023/09/17 01:14:46;;;;;;;;;;;19.00;99.90;;;;;;5037613;28;19925;-84
2023/09/17 01:17:13;;;;;;;;;;;19.00;99.90;;;;;;5036302;28;19925;-84
2023/09/17 01:19:42;;;;;;;;;;;19.00;99.90;;;;;;5034732;28;20018;-83
2023/09/17 01:22:16;;;;;;;;;;;18.90;99.90;;;;;;5037998;28;19925;-84
2023/09/17 01:24:48;;;;;;;;;;;18.90;99.90;;;;;;5026847;28;19932;-83
2023/09/17 01:27:16;;;;;;;;;;;18.90;99.90;;;;;;5037567;28;20450;-84
2023/09/17 01:29:43;;;;;;;;;;;18.90;99.90;;;;;;5039104;28;19960;-83
2023/09/17 01:32:11;;;;;;;;;;;18.90;99.90;;;;;;5039637;28;20380;-84
2023/09/17 01:34:43;;;;;;;;;;;18.90;99.90;;;;;;5036865;28;19925;-85
2023/09/17 01:37:15;;;;;;;;;;;18.90;99.90;;;;;;5038545;28;19925;-85
2023/09/17 01:39:45;;;;;;;;;;;18.80;99.90;;;;;;5033831;28;19941;-84
2023/09/17 01:42:12;;;;;;;;;;;18.90;99.90;;;;;;5039329;28;20009;-83
2023/09/17 01:44:40;;;;;;;;;;;18.80;99.90;;;;;;5038232;28;19929;-84
2023/09/17 01:47:07;;;;;;;;;;;18.80;99.90;;;;;;5039513;28;20404;-84
2023/09/17 01:49:34;;;;;;;;;;;18.80;99.90;;;;;;5039512;28;19991;-83
2023/09/17 01:52:01;;;;;;;;;;;18.80;99.90;;;;;;5036478;28;20381;-83
2023/09/17 01:54:28;;;;;;;;;;;18.80;99.90;;;;;;5033649;28;20459;-83
2023/09/17 01:56:54;;;;;;;;;;;18.80;99.90;;;;;;5034659;28;19925;-84
2023/09/17 01:59:21;;;;;;;;;;;18.80;99.90;;;;;;5038161;28;19933;-84
2023/09/17 02:01:48;;;;;;;;;;;18.70;99.90;;;;;;5037372;28;19933;-83
2023/09/17 02:04:14;;;;;;;;;;;18.80;99.90;;;;;;5033021;28;19925;-84
2023/09/17 02:06:41;;;;;;;;;;;18.70;99.90;;;;;;5035508;28;19929;-84
2023/09/17 02:09:08;;;;;;;;;;;18.70;99.90;;;;;;5035814;28;20388;-83
2023/09/17 02:11:35;;;;;;;;;;;18.70;99.90;;;;;;5037827;28;20015;-84
2023/09/17 02:14:02;;;;;;;;;;;18.70;99.90;;;;;;5037719;28;19929;-83
2023/09/17 02:16:31;;;;;;;;;;;18.70;99.90;;;;;;5036254;28;20605;-83
2023/09/17 02:18:59;;;;;;;;;;;18.60;99.90;;;;;;5037834;28;19948;-83
2023/09/17 02:21:26;;;;;;;;;;;18.60;99.90;;;;;;5039113;28;20281;-84
2023/09/17 02:23:54;;;;;;;;;;;18.60;99.90;;;;;;5037764;28;20380;-83
2023/09/17 02:26:24;;;;;;;;;;;18.60;99.90;;;;;;5030977;28;20343;-83
2023/09/17 02:28:51;;;;;;;;;;;18.60;99.90;;;;;;5037107;28;20019;-84
2023/09/17 02:31:18;;;;;;;;;;;18.50;99.90;;;;;;5039384;28;19949;-83
2023/09/17 02:33:44;;;;;;;;;;;18.50;99.90;;;;;;5036117;28;19925;-84
2023/09/17 02:36:13;;;;;;;;;;;18.60;99.90;;;;;;5040203;28;19925;-83
2023/09/17 02:38:41;;;;;;;;;;;18.60;99.90;;;;;;5037829;28;19925;-83
2023/09/17 02:41:08;;;;;;;;;;;18.50;99.90;;;;;;5039201;28;20392;-83
2023/09/17 02:43:36;;;;;;;;;;;18.50;99.90;;;;;;5038755;28;19948;-83
2023/09/17 02:46:06;;;;;;;;;;;18.50;99.90;;;;;;5035849;28;19924;-83
2023/09/17 02:48:32;;;;;;;;;;;18.50;99.90;;;;;;5037966;28;19971;-84
2023/09/17 02:50:59;;;;;;;;;;;18.50;99.90;;;;;;5040142;28;19948;-83
2023/09/17 02:53:26;;;;;;;;;;;18.50;99.90;;;;;;5039884;28;19929;-84
2023/09/17 02:55:54;;;;;;;;;;;18.50;99.90;;;;;;5038051;28;20359;-85
2023/09/17 02:58:21;;;;;;;;;;;18.50;99.90;;;;;;5039269;28;20020;-84
2023/09/17 03:00:47;;;;;;;;;;;18.40;99.90;;;;;;5035432;28;19932;-83
2023/09/17 03:03:14;;;;;;;;;;;18.40;99.90;;;;;;5035952;28;19933;-84
2023/09/17 03:05:46;;;;;;;;;;;18.40;99.90;;;;;;5034095;28;19988;-83
2023/09/17 03:08:13;;;;;;;;;;;18.40;99.90;;;;;;5036123;28;19925;-83
2023/09/17 03:10:43;;;;;;;;;;;18.40;99.90;;;;;;5036802;28;19976;-82
2023/09/17 03:13:10;;;;;;;;;;;18.40;99.90;;;;;;5038304;28;20019;-84
2023/09/17 03:15:36;;;;;;;;;;;18.30;99.90;;;;;;5037282;28;20381;-84
2023/09/17 03:18:04;;;;;;;;;;;18.30;99.90;;;;;;5036667;28;20387;-83
2023/09/17 03:20:33;;;;;;;;;;;18.30;99.90;;;;;;5033947;28;19925;-84
2023/09/17 03:23:02;;;;;;;;;;;18.30;99.90;;;;;;5035244;28;19932;-83
2023/09/17 03:25:31;;;;;;;;;;;18.30;99.90;;;;;;5037216;28;20400;-83
2023/09/17 03:28:01;;;;;;;;;;;18.30;99.90;;;;;;5034219;28;19933;-83
2023/09/17 03:30:28;;;;;;;;;;;18.30;99.90;;;;;;5037897;28;19925;-83
2023/09/17 03:32:54;;;;;;;;;;;18.30;99.90;;;;;;5038873;28;19961;-84
2023/09/17 03:35:30;;;;;;;;;;;18.30;99.90;;;;;;5040753;28;19936;-83
2023/09/17 03:37:57;;;;;;;;;;;18.20;99.90;;;;;;5041504;28;19925;-83
2023/09/17 03:40:24;;;;;;;;;;;18.30;99.90;;;;;;5033541;28;19929;-83
2023/09/17 03:42:51;;;;;;;;;;;18.20;99.90;;;;;;5038229;28;19925;-82
2023/09/17 03:45:18;;;;;;;;;;;18.30;99.90;;;;;;5039646;28;19932;-84
2023/09/17 03:47:47;;;;;;;;;;;18.20;99.90;;;;;;5039100;28;19931;-83
2023/09/17 03:50:17;;;;;;;;;;;18.20;99.90;;;;;;5038590;28;19948;-83
2023/09/17 03:52:49;;;;;;;;;;;18.20;99.90;;;;;;5035031;28;19926;-83
2023/09/17 03:55:16;;;;;;;;;;;18.20;99.90;;;;;;5034330;28;19968;-84
2023/09/17 03:57:43;;;;;;;;;;;18.20;99.90;;;;;;5035528;28;19925;-83
2023/09/17 04:00:13;;;;;;;;;;;18.10;99.90;;;;;;5035468;28;19933;-85
2023/09/17 04:02:41;;;;;;;;;;;18.10;99.90;;;;;;5038744;28;19925;-83
2023/09/17 04:05:16;;;;;;;;;;;18.10;99.90;;;;;;5036981;28;19925;-83
2023/09/17 04:07:44;;;;;;;;;;;18.10;99.90;;;;;;5037482;28;19949;-86
2023/09/17 04:10:12;;;;;;;;;;;18.10;99.90;;;;;;5036928;28;19948;-83
2023/09/17 04:12:39;;;;;;;;;;;18.10;99.90;;;;;;5037607;28;20376;-83
2023/09/17 04:15:10;;;;;;;;;;;18.00;99.90;;;;;;5036936;28;19925;-83
2023/09/17 04:17:37;;;;;;;;;;;18.10;99.90;;;;;;5040848;28;19996;-84
2023/09/17 04:20:09;;;;;;;;;;;18.10;99.90;;;;;;5037344;28;19948;-84
2023/09/17 04:22:36;;;;;;;;;;;18.00;99.90;;;;;;5041335;28;19925;-84
2023/09/17 04:25:06;;;;;;;;;;;18.00;99.90;;;;;;5044131;28;19976;-85
2023/09/17 04:27:32;;;;;;;;;;;18.00;99.90;;;;;;5043159;28;19936;-85
2023/09/17 04:29:59;;;;;;;;;;;18.00;99.90;;;;;;5044041;28;19956;-84
2023/09/17 04:32:26;;;;;;;;;;;18.00;99.90;;;;;;5043263;28;20420;-83
2023/09/17 04:34:52;;;;;;;;;;;17.90;99.90;;;;;;5043574;28;19925;-84
2023/09/17 04:37:19;;;;;;;;;;;17.90;99.90;;;;;;5042538;28;19932;-83
2023/09/17 04:39:49;;;;;;;;;;;17.90;99.90;;;;;;5041387;28;19964;-84
2023/09/17 04:42:17;;;;;;;;;;;17.90;99.90;;;;;;5039845;28;19926;-84
2023/09/17 04:44:43;;;;;;;;;;;17.90;99.90;;;;;;5035590;28;20381;-84
2023/09/17 04:47:10;;;;;;;;;;;17.80;99.90;;;;;;5038057;28;19925;-83
2023/09/17 04:49:37;;;;;;;;;;;17.80;99.90;;;;;;5038428;28;19932;-84
2023/09/17 04:52:04;;;;;;;;;;;17.80;99.90;;;;;;5039873;28;19979;-83
2023/09/17 04:54:31;;;;;;;;;;;17.80;99.90;;;;;;5039093;28;19960;-84
2023/09/17 04:56:57;;;;;;;;;;;17.80;99.90;;;;;;5037753;28;19979;-84
2023/09/17 04:59:24;;;;;;;;;;;17.80;99.90;;;;;;5038848;28;20341;-84
2023/09/17 05:01:51;;;;;;;;;;;17.80;99.90;;;;;;5040959;28;19957;-83
2023/09/17 05:04:18;;;;;;;;;;;17.80;99.90;;;;;;5041430;28;19932;-83
2023/09/17 05:06:44;;;;;;;;;;;17.80;99.90;;;;;;5041276;28;19925;-84
2023/09/17 05:09:11;;;;;;;;;;;17.70;99.90;;;;;;5038981;28;19968;-83
2023/09/17 05:11:37;;;;;;;;;;;17.80;99.90;;;;;;5041004;28;19956;-84
2023/09/17 05:14:04;;;;;;;;;;;17.70;99.90;;;;;;5041160;28;19929;-83
2023/09/17 05:16:31;;;;;;;;;;;17.70;99.90;;;;;;5039346;28;20285;-83
2023/09/17 05:18:58;;;;;;;;;;;17.70;99.90;;;;;;5041804;28;19925;-84
2023/09/17 05:21:24;;;;;;;;;;;17.70;99.90;;;;;;5040034;28;20312;-84
2023/09/17 05:23:51;;;;;;;;;;;17.70;99.90;;;;;;5042452;28;20015;-83
2023/09/17 05:26:18;;;;;;;;;;;17.70;99.90;;;;;;5039728;28;20373;-84
2023/09/17 05:28:45;;;;;;;;;;;17.70;99.90;;;;;;5038481;28;19925;-83
2023/09/17 05:31:11;;;;;;;;;;;17.70;99.90;;;;;;5042771;28;19932;-84
2023/09/17 05:33:38;;;;;;;;;;;17.70;99.90;;;;;;5042862;28;19932;-84
2023/09/17 05:36:05;;;;;;;;;;;17.70;99.90;;;;;;5042175;28;19925;-85
2023/09/17 05:38:32;;;;;;;;;;;17.70;99.90;;;;;;5042021;28;19925;-84
2023/09/17 05:40:58;;;;;;;;;;;17.80;99.90;;;;;;5036683;28;19953;-84
2023/09/17 05:43:25;;;;;;;;;;;17.70;99.90;;;;;;5037355;28;19925;-84
2023/09/17 05:45:56;;;;;;;;;;;17.80;99.90;;;;;;5037736;28;20361;-83
2023/09/17 05:48:23;;;;;;;;;;;17.80;99.90;;;;;;5036758;28;19952;-83
2023/09/17 05:50:52;;;;;;;;;;;17.80;99.90;;;;;;5037392;28;19936;-83
2023/09/17 05:53:20;;;;;;;;;;;17.90;99.90;;;;;;5037151;28;20304;-83
2023/09/17 05:55:47;;;;;;;;;;;17.90;99.90;;;;;;5038297;28;19963;-84
2023/09/17 05:58:14;;;;;;;;;;;17.90;99.90;;;;;;5040266;28;19949;-83
2023/09/17 06:00:40;;;;;;;;;;;17.90;99.90;;;;;;5034107;28;20020;-83
2023/09/17 06:03:07;;;;;;;;;;;18.00;99.90;;;;;;5041188;28;19925;-85
2023/09/17 06:05:34;;;;;;;;;;;18.00;99.90;;;;;;5042566;28;20012;-84
2023/09/17 06:08:01;;;;;;;;;;;18.00;99.90;;;;;;5041369;28;19925;-83
2023/09/17 06:10:27;;;;;;;;;;;18.10;99.90;;;;;;5039466;28;19968;-86
2023/09/17 06:12:54;;;;;;;;;;;18.10;99.90;;;;;;5040192;28;20371;-84
2023/09/17 06:15:21;;;;;;;;;;;18.10;99.90;;;;;;5037617;28;19948;-84
2023/09/17 06:17:47;;;;;;;;;;;18.20;99.90;;;;;;5040172;28;19925;-83
2023/09/17 06:20:14;;;;;;;;;;;18.20;99.90;;;;;;5039206;28;19929;-84
2023/09/17 06:22:41;;;;;;;;;;;18.30;99.90;;;;;;5036853;28;20347;-83
2023/09/17 06:25:08;;;;;;;;;;;18.30;99.90;;;;;;5040517;28;19932;-84
2023/09/17 06:27:35;;;;;;;;;;;18.40;99.90;;;;;;5038043;28;20449;-83
2023/09/17 06:30:01;;;;;;;;;;;18.40;99.90;;;;;;5038861;28;19939;-84
2023/09/17 06:32:28;;;;;;;;;;;18.50;99.90;;;;;;5037365;28;19932;-84
2023/09/17 06:34:55;;;;;;;;;;;18.50;99.90;;;;;;5035851;28;19925;-84
2023/09/17 06:37:22;;;;;;;;;;;18.50;99.90;;;;;;5035945;28;20344;-84
2023/09/17 06:39:49;;;;;;;;;;;18.60;99.90;;;;;;5035730;28;19933;-84
2023/09/17 06:42:15;;;;;;;;;;;18.60;99.90;;;;;;5038210;28;19925;-86
2023/09/17 06:44:42;;;;;;;;;;;18.60;99.90;;;;;;5038327;28;20001;-84
2023/09/17 06:47:09;;;;;;;;;;;18.70;99.90;;;;;;5038556;28;20420;-84
2023/09/17 06:49:35;;;;;;;;;;;18.70;99.90;;;;;;5038381;28;19951;-84
2023/09/17 06:52:02;;;;;;;;;;;18.80;99.90;;;;;;5038552;28;19928;-83
2023/09/17 06:54:29;;;;;;;;;;;18.80;99.90;;;;;;5039113;28;19925;-85
2023/09/17 06:56:56;;;;;;;;;;;18.80;99.90;;;;;;5040292;28;20388;-84
2023/09/17 06:59:23;;;;;;;;;;;18.90;99.90;;;;;;5038289;28;19925;-84
2023/09/17 07:01:50;;;;;;;;;;;19.00;99.90;;;;;;5040464;28;19971;-84
2023/09/17 07:04:17;;;;;;;;;;;18.90;99.90;;;;;;5038385;28;19926;-84
2023/09/17 07:06:43;;;;;;;;;;;19.00;99.90;;;;;;5038349;28;20312;-82
2023/09/17 07:09:10;;;;;;;;;;;19.00;99.90;;;;;;5038953;28;19925;-84
2023/09/17 07:11:37;;;;;;;;;;;19.00;99.90;;;;;;5037825;28;20003;-84
2023/09/17 07:14:09;;;;;;;;;;;19.10;99.90;;;;;;5038554;28;19936;-86
2023/09/17 07:16:36;;;;;;;;;;;19.10;99.90;;;;;;5041977;28;19925;-84
2023/09/17 07:19:06;;;;;;;;;;;19.10;99.90;;;;;;5042918;28;19925;-84
2023/09/17 07:21:33;;;;;;;;;;;19.20;99.90;;;;;;5042185;28;19933;-83
2023/09/17 07:24:00;;;;;;;;;;;19.30;99.90;;;;;;5041212;28;19965;-83
2023/09/17 07:26:27;;;;;;;;;;;19.30;99.90;;;;;;5037010;28;19948;-84
2023/09/17 07:28:54;;;;;;;;;;;19.40;99.90;;;;;;5038381;28;19948;-84
2023/09/17 07:31:21;;;;;;;;;;;19.40;99.90;;;;;;5038005;28;19926;-84
2023/09/17 07:33:48;;;;;;;;;;;19.50;99.90;;;;;;5036914;28;19925;-84
2023/09/17 07:36:15;;;;;;;;;;;19.50;99.90;;;;;;5038204;28;20011;-83
2023/09/17 07:38:42;;;;;;;;;;;19.50;99.90;;;;;;5038561;28;19925;-83
2023/09/17 07:41:09;;;;;;;;;;;19.70;99.90;;;;;;5041767;28;19960;-86
2023/09/17 07:43:35;;;;;;;;;;;19.70;99.90;;;;;;5044650;28;19929;-85
2023/09/17 07:46:03;;;;;;;;;;;19.70;99.90;;;;;;5032682;28;19925;-84
2023/09/17 07:48:30;;;;;;;;;;;19.80;99.90;;;;;;5043701;28;19951;-84
2023/09/17 07:50:57;;;;;;;;;;;19.90;99.90;;;;;;5039765;28;19976;-84
2023/09/17 07:53:25;;;;;;;;;;;19.90;99.90;;;;;;5048577;28;19925;-84
2023/09/17 07:55:51;;;;;;;;;;;19.90;99.90;;;;;;5047652;28;19925;-84
2023/09/17 07:58:18;;;;;;;;;;;20.00;99.90;;;;;;5046234;28;19929;-83
2023/09/17 08:00:45;;;;;;;;;;;20.00;99.90;;;;;;5046279;28;19991;-84
2023/09/17 08:03:13;;;;;;;;;;;20.10;99.90;;;;;;5046493;28;20370;-84
2023/09/17 08:05:40;;;;;;;;;;;20.10;99.90;;;;;;5046468;28;19925;-84
2023/09/17 08:08:07;;;;;;;;;;;20.10;99.90;;;;;;5050705;28;19991;-84
2023/09/17 08:10:34;;;;;;;;;;;20.20;99.90;;;;;;5053306;28;19968;-85
2023/09/17 08:13:00;;;;;;;;;;;20.30;99.90;;;;;;5052233;28;19929;-84
2023/09/17 08:15:29;;;;;;;;;;;20.40;99.90;;;;;;5051401;28;19932;-84
2023/09/17 08:17:56;;;;;;;;;;;20.50;99.90;;;;;;5047983;28;19937;-84
2023/09/17 08:20:23;;;;;;;;;;;20.50;99.90;;;;;;5047128;28;20282;-85
2023/09/17 08:22:51;;;;;;;;;;;20.70;99.90;;;;;;5045029;28;20449;-85
2023/09/17 08:25:18;;;;;;;;;;;20.70;99.90;;;;;;5042050;28;19926;-86
2023/09/17 08:27:46;;;;;;;;;;;20.80;99.90;;;;;;5044028;28;20269;-85
2023/09/17 08:30:13;;;;;;;;;;;20.80;99.90;;;;;;5045547;28;20328;-86
2023/09/17 08:32:40;;;;;;;;;;;20.90;99.90;;;;;;5046229;28;19932;-85
2023/09/17 08:35:07;;;;;;;;;;;21.00;99.90;;;;;;5045252;28;19984;-86
2023/09/17 08:37:34;;;;;;;;;;;21.00;99.90;;;;;;5044414;28;19975;-84
2023/09/17 08:40:04;;;;;;;;;;;21.00;99.90;;;;;;5044754;28;19936;-85
2023/09/17 08:42:31;;;;;;;;;;;21.10;99.90;;;;;;5044299;28;19925;-84
2023/09/17 08:44:59;;;;;;;;;;;21.10;99.90;;;;;;5034201;28;19925;-84
2023/09/17 08:47:25;;;;;;;;;;;21.10;99.90;;;;;;5044977;28;20006;-84
2023/09/17 08:49:52;;;;;;;;;;;21.20;99.90;;;;;;5044171;28;19929;-84
2023/09/17 08:52:20;;;;;;;;;;;21.30;99.90;;;;;;5045310;28;20013;-85
2023/09/17 08:54:48;;;;;;;;;;;21.20;99.90;;;;;;5041539;28;19933;-84
2023/09/17 08:57:16;;;;;;;;;;;21.30;99.90;;;;;;5042907;28;20364;-84
2023/09/17 08:59:46;;;;;;;;;;;21.30;99.90;;;;;;5043109;28;19925;-84
2023/09/17 09:02:22;;;;;;;;;;;21.30;99.90;;;;;;5042858;28;19977;-84
2023/09/17 09:04:51;;;;;;;;;;;21.30;99.90;;;;;;5043528;28;19932;-84
2023/09/17 09:07:20;;;;;;;;;;;21.40;99.90;;;;;;5044451;28;19929;-85
2023/09/17 09:09:48;;;;;;;;;;;21.40;99.90;;;;;;5044709;28;19924;-84
2023/09/17 09:12:15;;;;;;;;;;;21.40;99.90;;;;;;5048133;28;19925;-84
2023/09/17 09:14:43;;;;;;;;;;;21.50;99.90;;;;;;5047510;28;19925;-85
2023/09/17 09:17:11;;;;;;;;;;;21.50;99.90;;;;;;5046981;28;19960;-84
2023/09/17 09:19:38;;;;;;;;;;;21.50;99.90;;;;;;5047499;28;19925;-85
2023/09/17 09:22:05;;;;;;;;;;;21.60;99.90;;;;;;5046972;28;19932;-85
2023/09/17 09:24:45;;;;;;;;;;;21.60;99.90;;;;;;5046568;28;19925;-85
2023/09/17 09:27:11;;;;;;;;;;;21.70;99.90;;;;;;5046022;28;20393;-85
2023/09/17 09:29:42;;;;;;;;;;;21.70;99.90;;;;;;5046481;28;19960;-85
2023/09/17 09:32:09;;;;;;;;;;;21.70;99.90;;;;;;5047179;28;19983;-86
2023/09/17 09:34:40;;;;;;;;;;;21.80;99.90;;;;;;5045766;28;19929;-85
2023/09/17 09:37:08;;;;;;;;;;;21.90;99.90;;;;;;5045651;28;20466;-87
2023/09/17 09:39:35;;;;;;;;;;;21.90;99.90;;;;;;5044879;28;19925;-84
2023/09/17 09:42:03;;;;;;;;;;;22.00;99.90;;;;;;5045714;28;19933;-85
2023/09/17 09:44:31;;;;;;;;;;;22.10;99.90;;;;;;5046355;28;19932;-85
2023/09/17 09:46:59;;;;;;;;;;;22.30;99.90;;;;;;5046444;28;19947;-85
2023/09/17 09:49:26;;;;;;;;;;;22.40;99.90;;;;;;5046130;28;19933;-86
2023/09/17 09:51:52;;;;;;;;;;;22.50;99.90;;;;;;5047325;28;19932;-85
2023/09/17 09:54:19;;;;;;;;;;;22.60;99.90;;;;;;5045189;28;20364;-84
2023/09/17 09:56:47;;;;;;;;;;;22.70;99.90;;;;;;5046437;28;19936;-85
2023/09/17 09:59:14;;;;;;;;;;;22.80;99.90;;;;;;5042600;28;19925;-86
2023/09/17 10:01:41;;;;;;;;;;;22.90;99.90;;;;;;5045907;28;19925;-85
2023/09/17 10:04:09;;;;;;;;;;;23.00;99.90;;;;;;5045049;28;19925;-87
2023/09/17 10:06:37;;;;;;;;;;;23.10;99.90;;;;;;5045658;28;19929;-84
2023/09/17 10:09:04;;;;;;;;;;;23.20;99.90;;;;;;5046158;28;19925;-85
2023/09/17 10:11:30;;;;;;;;;;;23.30;99.90;;;;;;5044228;28;19925;-85
2023/09/17 10:14:04;;;;;;;;;;;23.40;99.90;;;;;;5039590;28;19936;-85
2023/09/17 10:16:32;;;;;;;;;;;23.50;99.90;;;;;;5042746;28;19936;-86
2023/09/17 10:18:59;;;;;;;;;;;23.50;99.90;;;;;;5044548;28;19929;-87
2023/09/17 10:21:26;;;;;;;;;;;23.60;99.90;;;;;;5044595;28;19925;-85
2023/09/17 10:23:53;;;;;;;;;;;23.60;99.90;;;;;;5041301;28;19933;-85
2023/09/17 10:26:23;;;;;;;;;;;23.60;99.90;;;;;;5044302;28;19929;-84
2023/09/17 10:28:50;;;;;;;;;;;23.70;99.90;;;;;;5043648;28;19925;-84
2023/09/17 10:31:18;;;;;;;;;;;23.80;99.90;;;;;;5045235;28;19971;-85
2023/09/17 10:33:46;;;;;;;;;;;23.80;99.90;;;;;;5044089;28;19925;-84
2023/09/17 10:36:13;;;;;;;;;;;23.90;99.90;;;;;;5044046;28;19948;-85
2023/09/17 10:38:41;;;;;;;;;;;23.90;99.90;;;;;;5043915;28;19925;-85
2023/09/17 10:41:10;;;;;;;;;;;23.90;99.90;;;;;;5044545;28;19948;-86
2023/09/17 10:43:37;;;;;;;;;;;24.00;99.90;;;;;;5043968;28;20388;-85
2023/09/17 10:46:06;;;;;;;;;;;24.10;99.90;;;;;;5039584;28;19925;-85
2023/09/17 10:48:33;;;;;;;;;;;24.10;99.90;;;;;;5044589;28;19925;-85
2023/09/17 10:51:00;;;;;;;;;;;24.20;99.90;;;;;;5045355;28;19925;-85
2023/09/17 10:53:27;;;;;;;;;;;24.30;99.90;;;;;;5042869;28;19953;-85
2023/09/17 10:55:59;;;;;;;;;;;24.40;99.90;;;;;;5042295;28;19925;-86
2023/09/17 10:58:45;;;;;;;;;;;24.50;99.90;;;;;;5040481;28;19929;-87
2023/09/17 11:01:13;;;;;;;;;;;24.60;99.90;;;;;;5044550;28;19947;-84
2023/09/17 11:03:55;;;;;;;;;;;24.80;99.90;;;;;;5041186;28;19992;-86
2023/09/17 11:06:25;;;;;;;;;;;24.90;99.90;;;;;;5037300;28;20460;-85
2023/09/17 11:08:54;;;;;;;;;;;25.10;99.90;;;;;;5037391;28;19925;-86
2023/09/17 11:11:22;;;;;;;;;;;25.10;99.90;;;;;;5038658;28;19929;-85
2023/09/17 11:13:50;;;;;;;;;;;25.20;99.90;;;;;;5034714;28;19933;-85
2023/09/17 11:16:18;;;;;;;;;;;25.20;99.90;;;;;;5036695;28;19925;-84
2023/09/17 11:19:05;;;;;;;;;;;25.30;99.90;;;;;;5037651;28;19931;-84
2023/09/17 11:21:35;;;;;;;;;;;25.30;99.90;;;;;;5039224;28;20296;-84
2023/09/17 11:24:06;;;;;;;;;;;25.30;99.90;;;;;;5034955;28;19929;-85
2023/09/17 11:26:37;;;;;;;;;;;25.30;99.90;;;;;;5038925;28;19929;-85
2023/09/17 11:29:05;;;;;;;;;;;25.40;99.90;;;;;;5036089;28;19933;-86
2023/09/17 11:31:33;;;;;;;;;;;25.40;99.90;;;;;;5037810;28;20344;-85
2023/09/17 11:34:05;;;;;;;;;;;25.50;99.90;;;;;;5040997;28;20456;-85
2023/09/17 11:36:32;;;;;;;;;;;25.50;99.90;;;;;;5041198;28;19925;-85
2023/09/17 11:39:03;;;;;;;;;;;25.60;99.90;;;;;;5041151;28;19929;-85
2023/09/17 11:41:31;;;;;;;;;;;25.70;99.90;;;;;;5039060;28;20040;-85
2023/09/17 11:44:00;;;;;;;;;;;25.70;99.90;;;;;;5037463;28;19964;-85
2023/09/17 11:46:26;;;;;;;;;;;25.80;99.90;;;;;;5038071;28;19925;-85
2023/09/17 11:48:53;;;;;;;;;;;25.90;99.90;;;;;;5038677;28;19964;-86
2023/09/17 11:51:25;;;;;;;;;;;26.00;99.90;;;;;;5039617;28;19929;-85
2023/09/17 11:54:02;;;;;;;;;;;26.00;99.90;;;;;;5036195;28;19932;-85
2023/09/17 11:56:33;;;;;;;;;;;26.00;99.90;;;;;;5037160;28;19976;-85
2023/09/17 11:59:04;;;;;;;;;;;26.20;99.90;;;;;;5037275;28;19999;-85
2023/09/17 12:01:40;;;;;;;;;;;26.30;99.90;;;;;;5035003;28;20008;-85
2023/09/17 12:04:08;;;;;;;;;;;26.40;99.90;;;;;;5036511;28;19925;-85
2023/09/17 12:06:36;;;;;;;;;;;26.60;99.90;;;;;;5038433;28;19925;-85
2023/09/17 12:09:10;;;;;;;;;;;26.70;99.90;;;;;;5036990;28;19925;-84
2023/09/17 12:11:37;;;;;;;;;;;26.80;99.90;;;;;;5037592;28;20407;-85
2023/09/17 12:14:06;;;;;;;;;;;26.90;99.90;;;;;;5038551;28;19932;-85
2023/09/17 12:16:33;;;;;;;;;;;26.90;99.90;;;;;;5035565;28;19925;-85
2023/09/17 12:19:00;;;;;;;;;;;26.80;99.90;;;;;;5037295;28;19932;-85
2023/09/17 12:21:44;;;;;;;;;;;26.80;99.90;;;;;;5037666;28;19925;-85
2023/09/17 12:24:18;;;;;;;;;;;26.80;99.90;;;;;;5038152;28;19925;-86
2023/09/17 12:26:58;;;;;;;;;;;26.80;99.90;;;;;;5036656;28;20419;-86
2023/09/17 12:29:25;;;;;;;;;;;26.70;99.90;;;;;;5036646;28;20375;-85
2023/09/17 12:31:52;;;;;;;;;;;26.70;99.90;;;;;;5036432;28;20023;-85
2023/09/17 12:34:19;;;;;;;;;;;26.70;99.90;;;;;;5038661;28;19925;-84
2023/09/17 12:36:46;;;;;;;;;;;26.70;99.90;;;;;;5037995;28;19925;-85
2023/09/17 12:39:12;;;;;;;;;;;26.60;99.90;;;;;;5044154;28;19925;-85
2023/09/17 12:41:39;;;;;;;;;;;26.60;99.90;;;;;;5042363;28;19925;-84
2023/09/17 12:44:07;;;;;;;;;;;26.60;99.90;;;;;;5043268;28;19929;-85
2023/09/17 12:46:33;;;;;;;;;;;26.50;99.90;;;;;;5044421;28;19925;-85
2023/09/17 12:49:00;;;;;;;;;;;26.50;99.90;;;;;;5044096;28;19925;-85
2023/09/17 12:51:27;;;;;;;;;;;26.50;99.90;;;;;;5040346;28;20411;-85
2023/09/17 12:53:54;;;;;;;;;;;26.50;99.90;;;;;;5046680;28;19932;-84
2023/09/17 12:56:21;;;;;;;;;;;26.50;99.90;;;;;;5043640;28;19925;-85
2023/09/17 12:58:48;;;;;;;;;;;26.50;99.90;;;;;;5042697;28;20446;-85
2023/09/17 13:01:15;;;;;;;;;;;26.50;99.90;;;;;;5043859;28;19968;-85
2023/09/17 13:03:55;;;;;;;;;;;26.50;99.90;;;;;;5044325;28;19925;-85
2023/09/17 13:06:24;;;;;;;;;;;26.60;99.90;;;;;;5043129;28;19925;-84
2023/09/17 13:08:51;;;;;;;;;;;26.60;99.90;;;;;;5042215;28;19925;-84
2023/09/17 13:11:18;;;;;;;;;;;26.70;99.90;;;;;;5043006;28;19925;-85
2023/09/17 13:13:45;;;;;;;;;;;26.70;99.90;;;;;;5043044;28;19925;-86
2023/09/17 13:16:12;;;;;;;;;;;26.80;99.90;;;;;;5043260;28;19983;-85
2023/09/17 13:18:39;;;;;;;;;;;26.80;99.90;;;;;;5042796;28;19971;-85
2023/09/17 13:21:06;;;;;;;;;;;26.90;99.90;;;;;;5041492;28;19925;-85
2023/09/17 13:23:35;;;;;;;;;;;26.90;99.90;;;;;;5044924;28;19929;-85
2023/09/17 13:26:02;;;;;;;;;;;27.00;99.90;;;;;;5044194;28;19929;-85
2023/09/17 13:28:29;;;;;;;;;;;27.10;99.90;;;;;;5036695;28;20443;-84
2023/09/17 13:30:55;;;;;;;;;;;27.20;99.90;;;;;;5033825;28;19983;-85
2023/09/17 13:33:22;;;;;;;;;;;27.30;99.90;;;;;;5030598;28;19973;-84
2023/09/17 13:35:51;;;;;;;;;;;27.30;99.90;;;;;;5034977;28;19925;-84
2023/09/17 13:38:18;;;;;;;;;;;27.40;99.90;;;;;;5037919;28;19933;-85
2023/09/17 13:40:48;;;;;;;;;;;27.50;99.90;;;;;;5037035;28;20277;-84
2023/09/17 13:43:15;;;;;;;;;;;27.50;99.90;;;;;;5038471;28;20316;-84
2023/09/17 13:45:58;;;;;;;;;;;27.60;99.90;;;;;;5035540;28;19925;-86
2023/09/17 13:48:25;;;;;;;;;;;27.60;99.90;;;;;;5032960;28;20012;-84
2023/09/17 13:50:51;;;;;;;;;;;27.60;99.90;;;;;;5034768;28;19972;-84
2023/09/17 13:53:18;;;;;;;;;;;27.60;99.90;;;;;;5037464;28;19929;-86
2023/09/17 13:55:45;;;;;;;;;;;27.70;99.90;;;;;;5037886;28;19926;-83
2023/09/17 13:58:12;;;;;;;;;;;27.70;99.90;;;;;;5034980;28;19929;-85
2023/09/17 14:00:39;;;;;;;;;;;27.70;99.90;;;;;;5036300;28;19925;-85
2023/09/17 14:03:13;;;;;;;;;;;27.70;99.90;;;;;;5035741;28;19925;-85
2023/09/17 14:05:40;;;;;;;;;;;27.70;99.90;;;;;;5034939;28;19979;-85
2023/09/17 14:08:07;;;;;;;;;;;27.60;99.90;;;;;;5036060;28;19925;-85
2023/09/17 14:10:34;;;;;;;;;;;27.60;99.90;;;;;;5036270;28;19971;-85
2023/09/17 14:13:03;;;;;;;;;;;27.60;99.90;;;;;;5035962;28;19926;-85
2023/09/17 14:15:31;;;;;;;;;;;27.50;99.90;;;;;;5031650;28;19979;-85
2023/09/17 14:17:58;;;;;;;;;;;27.50;99.90;;;;;;5036452;28;19925;-85
2023/09/17 14:20:25;;;;;;;;;;;27.50;99.90;;;;;;5036633;28;19925;-86